Historyczne dane pomiarowe

Dodano dane terminowe – wersja testowa.

Dane z okresu 1951-2019

Wersja bazy: 1.34 [2019-03-16, lista zmian], aktualizacja planowana na 2019-04-15

Dane meteo z obszaru Polski uzyskane na podstawie danych udostępnionych przez Instytut Meteorologii i Gospodarki Wodnej – Państwowy Instytut Badawczy.

 

Wybierz Datę:    

       

TemperaturaWilgotnośćWiatrCiśnienieOpadyŚniegCzas trwania zjawisk
 Stacja t tx tn tng RH VA  wxwx mslp ppp RRR   cm mm wxwxwxwxwxwxwx
1987-07-08 21.3 28.0 17.2- 66.0- 2.0 4.7---- 8.4------------
1987-07-07 21.2 26.6 13.0- 45.5- 0.3 2.7---- 0.0------------
1987-07-06 17.3 22.8 11.4- 58.8- 0.3 1.7---- 0.0------------
1987-07-05 16.4 19.0 13.6- 75.8- 3.0 5.0---- 0.0------------
1987-07-04 15.4 19.8 11.2- 71.5- 1.0 1.3---- 0.0------------
1987-07-03 17.0 20.1 12.4- 61.5- 0.3 2.0---- 0.0------------
1987-07-02 17.3 19.4 16.3- 70.5- 2.7 4.3---- 0.5------------
1987-07-01 21.4 26.1 17.5- 76.5- 4.3 6.0---- 1.8------------
1987-06-30 21.1 27.5 16.3- 75.5- 4.0 1.3---- 0.0------------
1987-06-29 16.0 20.4 10.2- 75.8- 8.0 5.3---- 3.1------------
1987-06-28 13.8 16.2 11.2- 70.5- 4.0 5.0---- 0.0------------
1987-06-27 15.8 18.7 13.9- 66.3- 3.3 2.3---- 0.0------------
1987-06-26 16.0 20.2 11.1- 54.8- 2.7 3.3---- 0.0------------
1987-06-25 13.8 17.1 11.5- 71.3- 6.0 4.0---- 0.0------------
1987-06-24 14.7 18.0 13.0- 79.8- 6.7 3.7---- 0.7------------
1987-06-23 13.3 16.8 10.4- 79.5- 5.3 1.7---- 0.0------------
1987-06-22 14.5 21.5 11.1- 79.0- 6.3 2.7---- 0.0------------
1987-06-21 18.8 24.3 13.4- 53.5- 2.0 3.3---- 0.0------------
1987-06-20 15.9 21.1 9.8- 58.3- 1.0 4.0---- 0.0------------
1987-06-19 12.5 15.4 9.5- 66.8- 4.3 5.0---- 0.0------------
1987-06-18 13.2 17.5 8.0- 61.5- 3.7 5.0---- 0.0------------
1987-06-17 12.7 14.6 11.3- 62.3- 5.0 12.0---- 0.0------------
1987-06-16 13.2 18.2 10.4- 86.0- 8.0 11.0---- 6.3------------
1987-06-15 14.4 17.5 10.3- 76.5- 4.3 4.0---- 8.2------------
1987-06-14 13.9 17.0 10.3- 79.3- 3.3 4.0---- 0.0------------
1987-06-13 13.5 15.4 11.5- 75.0- 3.0 2.7---- 5.8------------
1987-06-12 16.7 22.2 11.4- 67.0- 6.0 7.0---- 3.1------------
1987-06-11 16.8 21.5 10.6- 66.0- 3.3 3.3---- 0.0------------
1987-06-10 14.6 19.6 10.2- 72.8- 3.0 2.7---- 1.9------------
1987-06-09 15.2 19.2 11.3- 58.5- 2.0 6.0---- 0.0------------
1987-06-08 17.3 23.1 13.4- 72.0- 2.0 2.3---- 0.0------------
1987-06-07 16.4 21.3 10.5- 76.5- 3.0 3.3---- 0.0------------
1987-06-06 11.5 14.3 9.4- 83.0- 5.3 1.7---- 0.0------------
1987-06-05 13.4 17.3 12.3- 88.5- 6.0 0.7---- 0.0------------
1987-06-04 13.9 19.1 9.0- 67.0- 5.3 1.7---- 6.2------------
1987-06-03 10.7 14.8 7.3- 78.0- 4.3 4.0---- 3.7------------
1987-06-02 10.2 12.5 8.7- 77.8- 6.3 3.3---- 1.2------------
1987-06-01 9.0 11.3 4.7- 69.0- 4.7 1.7---- 0.9------------
1987-05-31 7.1 8.5 5.7- 78.3- 3.0 5.0---- 0.0------------
1987-05-30 6.4 8.1 6.0- 90.8- 8.0 11.0---- 1.6------------
1987-05-29 8.9 11.2 7.8- 78.8- 7.0 7.7---- 0.0------------
1987-05-28 12.3 15.4 9.0- 78.0- 7.3 5.0---- 2.7------------
1987-05-27 13.3 19.6 5.4- 61.8- 3.3 3.3---- 3.2------------
1987-05-26 9.6 12.5 7.2- 57.8- 1.7 3.3---- 0.0------------
1987-05-25 8.0 10.6 5.1- 68.3- 5.3 2.7---- 0.0------------
1987-05-24 8.0 9.7 7.3- 76.5- 7.0 5.0---- 1.2------------
1987-05-23 9.1 10.0 8.5- 73.8- 4.3 7.7---- 0.0------------
1987-05-22 8.5 10.3 7.1- 87.8- 7.0 6.7---- 0.0------------
1987-05-21 9.6 11.5 8.1- 72.5- 1.3 2.3---- 0.0------------
1987-05-20 10.3 15.6 5.1- 64.3- 4.0 3.3---- 0.0------------
1987-05-19 9.5 12.3 6.1- 75.0- 5.0 4.0---- 0.0------------
1987-05-18 11.0 15.2 5.1- 67.5- 3.0 1.7---- 0.0------------
1987-05-17 10.1 12.2 8.8- 67.5- 6.3 10.3---- 0.0------------
1987-05-16 11.3 15.4 9.5- 68.3- 6.7 6.0---- 6.7------------
1987-05-15 11.2 16.3 6.2- 47.8- 3.7 4.0---- 0.0------------
1987-05-14 9.2 11.2 7.9- 78.3- 6.3 2.7---- 0.0------------
1987-05-13 11.2 14.2 9.1- 83.3- 8.0 6.0---- 4.6------------
1987-05-12 10.2 15.3 5.2- 56.5- 7.3 5.3---- 1.6------------
1987-05-11 8.3 10.4 6.6- 62.8- 5.3 10.3---- 3.2------------
1987-05-10 10.8 17.2 6.6- 64.5- 5.0 7.0---- 3.8------------
1341.7 ms

 

Źródłem pochodzenia danych jest Instytut Meteorologii i Gospodarki Wodnej – Państwowy Instytut Badawczy. Dane Instytutu Meteorologii i Gospodarki Wodnej – Państwowego Instytutu Badawczego zostały przetworzone.

Dane źródłowe można odnaleźć na stronie https://dane.imgw.pl